createdAt,value
2017-09-10T00:00:13.707Z,21.91
2017-09-10T00:01:13.680Z,21.96
2017-09-10T00:02:13.661Z,22.05
2017-09-10T00:03:13.638Z,22.02
2017-09-10T00:04:13.615Z,22.02
2017-09-10T00:05:13.593Z,22.02
2017-09-10T00:06:13.576Z,22.05
2017-09-10T00:07:13.549Z,22.06
2017-09-10T00:08:13.530Z,21.90
2017-09-10T00:09:13.504Z,21.90
2017-09-10T00:10:13.482Z,22.03
2017-09-10T00:11:13.460Z,21.88
2017-09-10T00:12:13.438Z,21.92
2017-09-10T00:13:13.415Z,22.05
2017-09-10T00:14:13.395Z,22.00
2017-09-10T00:15:13.375Z,21.92
2017-09-10T00:16:13.350Z,21.90
2017-09-10T00:17:13.327Z,22.02
2017-09-10T00:18:13.306Z,22.07
2017-09-10T00:19:13.283Z,22.02
2017-09-10T00:20:13.261Z,22.03
2017-09-10T00:21:13.238Z,21.91
2017-09-10T00:22:13.219Z,22.02
2017-09-10T00:23:13.194Z,22.06
2017-09-10T00:24:13.173Z,21.94
2017-09-10T00:25:13.150Z,21.99
2017-09-10T00:26:13.128Z,22.00
2017-09-10T00:27:13.106Z,22.05
2017-09-10T00:28:13.085Z,22.02
2017-09-10T00:29:13.062Z,21.96
2017-09-10T00:30:13.040Z,22.05
2017-09-10T00:31:13.022Z,21.94
2017-09-10T00:32:12.996Z,21.92
2017-09-10T00:33:12.972Z,21.98
2017-09-10T00:34:12.950Z,21.96
2017-09-10T00:35:12.930Z,22.06
2017-09-10T00:36:12.907Z,22.03
2017-09-10T00:37:12.884Z,22.03
2017-09-10T00:38:12.863Z,21.88
2017-09-10T00:39:12.841Z,21.99
2017-09-10T00:40:12.818Z,21.91
2017-09-10T00:41:12.797Z,21.98
2017-09-10T00:42:12.774Z,22.07
2017-09-10T00:43:12.753Z,21.90
2017-09-10T00:44:12.730Z,22.02
2017-09-10T00:45:12.709Z,22.02
2017-09-10T00:46:12.685Z,21.96
2017-09-10T00:47:12.664Z,21.96
2017-09-10T00:48:12.640Z,21.91
2017-09-10T00:49:12.619Z,21.99
2017-09-10T00:50:12.596Z,21.92
2017-09-10T00:51:12.574Z,22.03
2017-09-10T00:52:12.553Z,22.05
2017-09-10T00:53:12.531Z,22.05
2017-09-10T00:54:12.508Z,21.99
2017-09-10T00:55:12.486Z,22.05
2017-09-10T00:56:12.465Z,22.09
2017-09-10T00:57:12.443Z,22.02
2017-09-10T00:58:12.419Z,22.06
2017-09-10T00:59:12.399Z,22.02
2017-09-10T01:00:12.382Z,22.03
2017-09-10T01:01:12.353Z,21.96
2017-09-10T01:02:12.332Z,22.05
2017-09-10T01:03:12.309Z,22.00
2017-09-10T01:04:12.289Z,22.02
2017-09-10T01:05:12.265Z,22.02
2017-09-10T01:06:12.243Z,22.05
2017-09-10T01:07:12.221Z,22.02
2017-09-10T01:08:12.201Z,21.99
2017-09-10T01:09:12.178Z,22.02
2017-09-10T01:10:12.154Z,22.00
2017-09-10T01:11:12.133Z,21.99
2017-09-10T01:12:12.111Z,22.00
2017-09-10T01:13:12.088Z,22.00
2017-09-10T01:14:12.066Z,21.92
2017-09-10T01:15:12.044Z,22.03
2017-09-10T01:16:12.023Z,21.96
2017-09-10T01:17:11.999Z,22.06
2017-09-10T01:18:11.977Z,22.00
2017-09-10T01:19:11.956Z,22.00
2017-09-10T01:20:11.933Z,21.99
2017-09-10T01:21:11.913Z,21.91
2017-09-10T01:22:11.890Z,22.06
2017-09-10T01:23:11.866Z,21.98
2017-09-10T01:24:11.846Z,22.02
2017-09-10T01:25:11.822Z,21.96
2017-09-10T01:26:11.801Z,22.06
2017-09-10T01:27:11.778Z,22.00
2017-09-10T01:28:11.756Z,22.02
2017-09-10T01:29:11.733Z,21.94
2017-09-10T01:30:11.711Z,21.92
2017-09-10T01:31:11.689Z,21.96
2017-09-10T01:32:11.669Z,21.92
2017-09-10T01:33:11.647Z,21.91
2017-09-10T01:34:11.622Z,21.99
2017-09-10T01:35:11.601Z,21.90
2017-09-10T01:36:11.578Z,21.92
2017-09-10T01:37:11.558Z,21.90
2017-09-10T01:38:11.533Z,22.00
2017-09-10T01:39:11.513Z,21.86
2017-09-10T01:40:11.491Z,21.94
2017-09-10T01:41:11.469Z,21.92
2017-09-10T01:42:11.445Z,21.88
2017-09-10T01:43:11.425Z,21.90
2017-09-10T01:44:11.402Z,21.94
2017-09-10T01:45:11.379Z,21.96
2017-09-10T01:46:11.358Z,21.99
2017-09-10T01:47:11.336Z,21.94
2017-09-10T01:48:11.317Z,21.98
2017-09-10T01:49:11.290Z,21.91
2017-09-10T01:50:11.268Z,21.94
2017-09-10T01:51:11.267Z,21.92
2017-09-10T01:52:11.225Z,21.91
2017-09-10T01:53:11.202Z,21.91
2017-09-10T01:54:11.188Z,21.91
2017-09-10T01:55:11.159Z,21.91
2017-09-10T01:56:11.136Z,21.92
2017-09-10T01:57:11.113Z,21.99
2017-09-10T01:58:11.093Z,21.88
2017-09-10T01:59:11.070Z,21.90
2017-09-10T02:00:11.048Z,21.92
2017-09-10T02:01:11.025Z,21.91
2017-09-10T02:02:11.003Z,21.92
2017-09-10T02:03:10.982Z,21.94
2017-09-10T02:04:10.960Z,21.92
2017-09-10T02:05:10.937Z,21.94
2017-09-10T02:06:10.916Z,21.88
2017-09-10T02:07:10.892Z,21.94
2017-09-10T02:08:10.871Z,21.88
2017-09-10T02:09:10.848Z,21.91
2017-09-10T02:10:10.825Z,21.88
2017-09-10T02:11:10.803Z,21.94
2017-09-10T02:12:10.782Z,21.91
2017-09-10T02:13:10.759Z,21.99
2017-09-10T02:14:10.740Z,21.94
2017-09-10T02:15:10.716Z,21.98
2017-09-10T02:16:10.693Z,21.90
2017-09-10T02:17:10.671Z,21.98
2017-09-10T02:18:10.648Z,21.96
2017-09-10T02:19:10.628Z,22.00
2017-09-10T02:20:10.604Z,21.94
2017-09-10T02:21:10.582Z,21.92
2017-09-10T02:22:10.560Z,22.00
2017-09-10T02:23:10.538Z,21.84
2017-09-10T02:24:10.516Z,21.94
2017-09-10T02:25:10.494Z,21.94
2017-09-10T02:26:10.472Z,21.96
2017-09-10T02:27:10.449Z,21.91
2017-09-10T02:28:10.427Z,21.94
2017-09-10T02:29:10.405Z,21.94
2017-09-10T02:30:10.383Z,21.96
2017-09-10T02:31:10.361Z,21.96
2017-09-10T02:32:10.340Z,21.91
2017-09-10T02:33:10.316Z,21.96
2017-09-10T02:34:10.294Z,21.98
2017-09-10T02:35:10.284Z,21.92
2017-09-10T02:36:10.251Z,21.96
2017-09-10T02:37:10.228Z,21.90
2017-09-10T02:38:10.206Z,21.96
2017-09-10T02:39:10.184Z,21.92
2017-09-10T02:40:10.161Z,21.86
2017-09-10T02:41:10.137Z,21.98
2017-09-10T02:42:10.116Z,21.96
2017-09-10T02:43:10.094Z,21.84
2017-09-10T02:44:10.072Z,21.92
2017-09-10T02:45:10.051Z,21.90
2017-09-10T02:46:10.029Z,21.98
2017-09-10T02:47:10.007Z,21.90
2017-09-10T02:48:09.982Z,21.88
2017-09-10T02:49:09.962Z,21.99
2017-09-10T02:50:09.941Z,21.92
2017-09-10T02:51:09.918Z,21.96
2017-09-10T02:52:09.896Z,21.92
2017-09-10T02:53:09.880Z,21.94
2017-09-10T02:54:09.851Z,21.90
2017-09-10T02:55:09.829Z,21.96
2017-09-10T02:56:09.806Z,21.90
2017-09-10T02:57:09.784Z,21.94
2017-09-10T02:58:09.762Z,21.96
2017-09-10T02:59:09.740Z,21.90
2017-09-10T03:00:09.719Z,21.99
2017-09-10T03:01:09.698Z,21.96
2017-09-10T03:02:09.675Z,21.96
2017-09-10T03:03:09.651Z,21.98
2017-09-10T03:04:09.630Z,21.92
2017-09-10T03:05:09.606Z,21.94
2017-09-10T03:06:09.585Z,21.98
2017-09-10T03:07:09.565Z,21.94
2017-09-10T03:08:09.540Z,21.82
2017-09-10T03:09:09.518Z,21.94
2017-09-10T03:10:09.497Z,21.94
2017-09-10T03:11:09.474Z,21.92
2017-09-10T03:12:09.454Z,21.88
2017-09-10T03:13:09.430Z,21.91
2017-09-10T03:14:09.408Z,21.98
2017-09-10T03:15:09.390Z,21.92
2017-09-10T03:16:09.364Z,21.94
2017-09-10T03:17:09.340Z,21.98
2017-09-10T03:18:09.319Z,21.92
2017-09-10T03:19:09.297Z,21.94
2017-09-10T03:20:09.276Z,21.90
2017-09-10T03:21:09.252Z,21.96
2017-09-10T03:22:09.232Z,21.91
2017-09-10T03:23:09.208Z,21.88
2017-09-10T03:24:09.186Z,21.88
2017-09-10T03:25:09.164Z,21.96
2017-09-10T03:26:09.142Z,21.92
2017-09-10T03:27:09.120Z,21.86
2017-09-10T03:28:09.097Z,21.96
2017-09-10T03:29:09.076Z,21.94
2017-09-10T03:30:09.054Z,21.94
2017-09-10T03:31:09.033Z,21.86
2017-09-10T03:32:09.010Z,21.86
2017-09-10T03:33:08.985Z,21.92
2017-09-10T03:34:08.964Z,21.96
2017-09-10T03:35:08.942Z,21.90
2017-09-10T03:36:08.920Z,21.88
2017-09-10T03:37:08.897Z,21.88
2017-09-10T03:38:08.876Z,21.82
2017-09-10T03:39:08.852Z,21.83
2017-09-10T03:40:08.833Z,21.88
2017-09-10T03:41:08.810Z,21.79
2017-09-10T03:42:08.789Z,21.84
2017-09-10T03:43:08.764Z,21.91
2017-09-10T03:44:08.747Z,21.92
2017-09-10T03:45:08.720Z,21.86
2017-09-10T03:46:08.697Z,21.83
2017-09-10T03:47:08.677Z,21.91
2017-09-10T03:48:08.655Z,21.90
2017-09-10T03:49:08.631Z,21.90
2017-09-10T03:50:08.611Z,21.84
2017-09-10T03:51:08.589Z,21.86
2017-09-10T03:52:08.565Z,21.86
2017-09-10T03:53:08.543Z,21.88
2017-09-10T03:54:08.520Z,21.86
2017-09-10T03:55:08.499Z,21.86
2017-09-10T03:56:08.476Z,21.90
2017-09-10T03:57:08.455Z,21.91
2017-09-10T03:58:08.432Z,21.84
2017-09-10T03:59:08.410Z,21.88
2017-09-10T04:00:08.389Z,21.84
2017-09-10T04:01:08.365Z,21.90
2017-09-10T04:02:08.343Z,21.90
2017-09-10T04:03:08.321Z,21.88
2017-09-10T04:04:08.300Z,21.84
2017-09-10T04:05:08.277Z,21.86
2017-09-10T04:06:08.255Z,21.88
2017-09-10T04:07:08.232Z,21.88
2017-09-10T04:08:08.211Z,21.84
2017-09-10T04:09:08.189Z,21.84
2017-09-10T04:10:08.166Z,21.88
2017-09-10T04:11:08.144Z,21.88
2017-09-10T04:12:08.121Z,21.82
2017-09-10T04:13:08.100Z,21.88
2017-09-10T04:14:08.077Z,21.82
2017-09-10T04:15:08.055Z,21.90
2017-09-10T04:16:08.032Z,21.90
2017-09-10T04:17:08.012Z,21.91
2017-09-10T04:18:07.989Z,21.86
2017-09-10T04:19:07.966Z,21.84
2017-09-10T04:20:07.944Z,21.79
2017-09-10T04:21:07.922Z,21.90
2017-09-10T04:22:07.900Z,21.90
2017-09-10T04:23:07.878Z,21.88
2017-09-10T04:24:07.856Z,21.86
2017-09-10T04:25:07.832Z,21.91
2017-09-10T04:26:07.816Z,21.90
2017-09-10T04:27:07.789Z,21.77
2017-09-10T04:28:07.767Z,21.91
2017-09-10T04:29:07.743Z,21.90
2017-09-10T04:30:07.723Z,21.90
2017-09-10T04:31:07.700Z,21.88
2017-09-10T04:32:07.681Z,21.90
2017-09-10T04:33:07.656Z,21.90
2017-09-10T04:34:07.634Z,21.84
2017-09-10T04:35:07.611Z,21.90
2017-09-10T04:36:07.589Z,21.84
2017-09-10T04:37:07.566Z,21.86
2017-09-10T04:38:07.545Z,21.84
2017-09-10T04:39:07.547Z,21.84
2017-09-10T04:40:07.501Z,21.90
2017-09-10T04:41:07.478Z,21.88
2017-09-10T04:42:07.457Z,21.88
2017-09-10T04:43:07.434Z,21.82
2017-09-10T04:44:07.412Z,21.90
2017-09-10T04:45:07.390Z,21.91
2017-09-10T04:46:07.368Z,21.88
2017-09-10T04:47:07.346Z,21.82
2017-09-10T04:48:07.324Z,21.91
2017-09-10T04:49:07.301Z,21.88
2017-09-10T04:50:07.280Z,21.82
2017-09-10T04:51:07.257Z,21.84
2017-09-10T04:52:07.235Z,21.86
2017-09-10T04:53:07.212Z,21.86
2017-09-10T04:54:07.191Z,21.88
2017-09-10T04:55:07.168Z,21.84
2017-09-10T04:56:07.148Z,21.86
2017-09-10T04:57:07.123Z,21.90
2017-09-10T04:58:07.103Z,21.83
2017-09-10T04:59:07.079Z,21.90
2017-09-10T05:00:07.057Z,21.94
2017-09-10T05:01:07.035Z,21.86
2017-09-10T05:02:07.013Z,21.92
2017-09-10T05:03:06.991Z,21.88
2017-09-10T05:04:06.968Z,21.90
2017-09-10T05:05:06.946Z,21.90
2017-09-10T05:06:06.925Z,21.94
2017-09-10T05:07:06.902Z,21.90
2017-09-10T05:08:06.880Z,21.91
2017-09-10T05:09:06.858Z,21.94
2017-09-10T05:10:06.837Z,21.94
2017-09-10T05:11:06.813Z,21.92
2017-09-10T05:12:06.791Z,21.90
2017-09-10T05:13:06.769Z,21.94
2017-09-10T05:14:06.745Z,21.94
2017-09-10T05:15:06.724Z,21.98
2017-09-10T05:16:06.703Z,21.90
2017-09-10T05:17:06.680Z,21.96
2017-09-10T05:18:06.658Z,21.91
2017-09-10T05:19:06.636Z,21.94
2017-09-10T05:20:06.613Z,21.91
2017-09-10T05:21:06.591Z,21.90
2017-09-10T05:22:06.572Z,21.98
2017-09-10T05:23:06.548Z,21.92
2017-09-10T05:24:06.526Z,21.92
2017-09-10T05:25:06.504Z,21.91
2017-09-10T05:26:06.480Z,21.99
2017-09-10T05:27:06.460Z,21.94
2017-09-10T05:28:06.436Z,21.92
2017-09-10T05:29:06.414Z,21.92
2017-09-10T05:30:06.391Z,21.91
2017-09-10T05:31:06.369Z,21.92
2017-09-10T05:32:06.348Z,21.96
2017-09-10T05:33:06.326Z,21.92
2017-09-10T05:34:06.303Z,21.98
2017-09-10T05:35:06.286Z,21.96
2017-09-10T05:36:06.258Z,21.91
2017-09-10T05:37:06.236Z,21.98
2017-09-10T05:38:06.216Z,21.91
2017-09-10T05:39:06.193Z,21.82
2017-09-10T05:40:06.172Z,21.92
2017-09-10T05:41:06.147Z,21.90
2017-09-10T05:42:06.126Z,21.92
2017-09-10T05:43:06.106Z,21.94
2017-09-10T05:44:06.081Z,21.88
2017-09-10T05:45:06.058Z,21.86
2017-09-10T05:46:06.038Z,21.92
2017-09-10T05:47:06.019Z,21.94
2017-09-10T05:48:05.994Z,21.82
2017-09-10T05:49:05.976Z,21.90
2017-09-10T05:50:05.950Z,21.90
2017-09-10T05:51:05.926Z,21.86
2017-09-10T05:52:05.906Z,21.86
2017-09-10T05:53:05.881Z,21.90
2017-09-10T05:54:05.860Z,21.88
2017-09-10T05:55:05.838Z,21.91
2017-09-10T05:56:05.816Z,21.88
2017-09-10T05:57:05.793Z,21.84
2017-09-10T05:58:05.770Z,21.91
2017-09-10T05:59:05.750Z,21.96
2017-09-10T06:00:05.727Z,21.91
2017-09-10T06:01:05.704Z,21.90
2017-09-10T06:02:05.682Z,21.91
2017-09-10T06:03:05.661Z,21.92
2017-09-10T06:04:05.641Z,21.96
2017-09-10T06:05:05.617Z,21.86
2017-09-10T06:06:05.593Z,21.86
2017-09-10T06:07:05.571Z,21.98
2017-09-10T06:08:05.551Z,21.88
2017-09-10T06:09:05.526Z,21.96
2017-09-10T06:10:05.504Z,21.86
2017-09-10T06:11:05.481Z,21.86
2017-09-10T06:12:05.464Z,21.90
2017-09-10T06:13:05.437Z,21.83
2017-09-10T06:14:05.416Z,21.92
2017-09-10T06:15:05.394Z,21.94
2017-09-10T06:16:05.372Z,21.92
2017-09-10T06:17:05.349Z,21.88
2017-09-10T06:18:05.332Z,21.94
2017-09-10T06:19:05.305Z,21.96
2017-09-10T06:20:05.285Z,21.96
2017-09-10T06:21:05.260Z,21.98
2017-09-10T06:22:05.240Z,21.99
2017-09-10T06:23:05.217Z,21.94
2017-09-10T06:24:05.195Z,21.94
2017-09-10T06:25:05.172Z,21.86
2017-09-10T06:26:05.150Z,21.94
2017-09-10T06:27:05.128Z,21.90
2017-09-10T06:28:05.106Z,21.92
2017-09-10T06:29:05.082Z,21.88
2017-09-10T06:30:05.061Z,21.86
2017-09-10T06:31:05.039Z,21.90
2017-09-10T06:32:05.018Z,21.90
2017-09-10T06:33:04.996Z,21.92
2017-09-10T06:34:04.972Z,21.96
2017-09-10T06:35:04.951Z,21.90
2017-09-10T06:36:04.928Z,21.88
2017-09-10T06:37:04.905Z,21.94
2017-09-10T06:38:04.883Z,21.88
2017-09-10T06:39:04.861Z,21.91
2017-09-10T06:40:04.840Z,21.94
2017-09-10T06:41:04.818Z,21.96
2017-09-10T06:42:04.798Z,21.92
2017-09-10T06:43:04.775Z,21.94
2017-09-10T06:44:04.751Z,21.92
2017-09-10T06:45:04.728Z,21.91
2017-09-10T06:46:04.707Z,21.91
2017-09-10T06:47:04.711Z,21.96
2017-09-10T06:48:04.662Z,21.91
2017-09-10T06:49:04.639Z,21.98
2017-09-10T06:50:04.618Z,21.98
2017-09-10T06:51:04.597Z,21.98
2017-09-10T06:52:04.575Z,21.96
2017-09-10T06:53:04.550Z,21.91
2017-09-10T06:54:04.528Z,21.92
2017-09-10T06:55:04.506Z,21.91
2017-09-10T06:56:04.486Z,21.92
2017-09-10T06:57:04.462Z,21.94
2017-09-10T06:58:04.441Z,21.96
2017-09-10T06:59:04.418Z,21.96
2017-09-10T07:00:04.397Z,21.99
2017-09-10T07:01:04.373Z,21.92
2017-09-10T07:02:04.353Z,21.91
2017-09-10T07:03:04.330Z,21.94
2017-09-10T07:04:04.309Z,21.88
2017-09-10T07:05:04.287Z,22.00
2017-09-10T07:06:04.262Z,22.00
2017-09-10T07:07:04.241Z,21.88
2017-09-10T07:08:04.220Z,21.92
2017-09-10T07:09:04.196Z,21.88
2017-09-10T07:10:04.175Z,21.94
2017-09-10T07:11:04.153Z,21.88
2017-09-10T07:12:04.130Z,21.90
2017-09-10T07:13:04.107Z,21.94
2017-09-10T07:14:04.085Z,21.96
2017-09-10T07:15:04.063Z,21.99
2017-09-10T07:16:04.041Z,21.91
2017-09-10T07:17:04.018Z,21.96
2017-09-10T07:18:03.997Z,21.91
2017-09-10T07:19:03.975Z,21.90
2017-09-10T07:20:03.956Z,21.98
2017-09-10T07:21:03.936Z,21.92
2017-09-10T07:22:03.911Z,21.94
2017-09-10T07:23:03.887Z,22.00
2017-09-10T07:24:03.868Z,22.06
2017-09-10T07:25:03.841Z,22.02
2017-09-10T07:26:03.820Z,22.00
2017-09-10T07:27:03.798Z,22.06
2017-09-10T07:28:03.776Z,21.92
2017-09-10T07:29:03.759Z,22.02
2017-09-10T07:30:03.732Z,22.00
2017-09-10T07:31:03.713Z,21.99
2017-09-10T07:32:03.689Z,22.00
2017-09-10T07:33:03.667Z,21.96
2017-09-10T07:34:03.642Z,22.06
2017-09-10T07:35:03.621Z,21.99
2017-09-10T07:36:03.598Z,21.99
2017-09-10T07:37:03.575Z,22.03
2017-09-10T07:38:03.555Z,22.09
2017-09-10T07:39:03.532Z,22.03
2017-09-10T07:40:03.511Z,22.06
2017-09-10T07:41:03.488Z,22.02
2017-09-10T07:42:03.500Z,22.06
2017-09-10T07:43:03.444Z,22.00
2017-09-10T07:44:03.423Z,21.99
2017-09-10T07:45:03.400Z,22.05
2017-09-10T07:46:03.379Z,22.03
2017-09-10T07:47:03.356Z,22.05
2017-09-10T07:48:03.336Z,22.09
2017-09-10T07:49:03.311Z,22.10
2017-09-10T07:50:03.288Z,22.12
2017-09-10T07:51:03.271Z,22.07
2017-09-10T07:52:03.245Z,22.10
2017-09-10T07:53:03.226Z,22.17
2017-09-10T07:54:03.203Z,22.15
2017-09-10T07:55:03.179Z,22.17
2017-09-10T07:56:03.158Z,22.25
2017-09-10T07:57:03.135Z,22.18
2017-09-10T07:58:03.112Z,22.21
2017-09-10T07:59:03.090Z,22.18
2017-09-10T08:00:03.070Z,22.17
2017-09-10T08:01:03.049Z,22.12
2017-09-10T08:02:03.026Z,22.17
2017-09-10T08:03:03.002Z,22.17
2017-09-10T08:04:02.980Z,22.14
2017-09-10T08:05:02.960Z,22.17
2017-09-10T08:06:02.938Z,22.15
2017-09-10T08:07:02.914Z,22.14
2017-09-10T08:08:02.894Z,22.14
2017-09-10T08:09:02.870Z,22.14
2017-09-10T08:10:02.849Z,22.14
2017-09-10T08:11:02.827Z,22.14
2017-09-10T08:12:02.804Z,22.10
2017-09-10T08:13:02.782Z,22.17
2017-09-10T08:14:02.760Z,22.18
2017-09-10T08:15:02.740Z,22.12
2017-09-10T08:16:02.718Z,22.15
2017-09-10T08:17:02.696Z,22.15
2017-09-10T08:18:02.673Z,22.15
2017-09-10T08:19:02.654Z,22.14
2017-09-10T08:20:02.629Z,22.17
2017-09-10T08:21:02.607Z,22.20
2017-09-10T08:22:02.584Z,22.14
2017-09-10T08:23:02.563Z,22.12
2017-09-10T08:24:02.542Z,22.20
2017-09-10T08:25:02.518Z,22.17
2017-09-10T08:26:02.498Z,22.17
2017-09-10T08:27:02.475Z,22.17
2017-09-10T08:28:02.453Z,22.18
2017-09-10T08:29:02.430Z,22.12
2017-09-10T08:30:02.409Z,22.18
2017-09-10T08:31:02.389Z,22.17
2017-09-10T08:32:02.365Z,22.22
2017-09-10T08:33:02.344Z,22.20
2017-09-10T08:34:02.321Z,22.18
2017-09-10T08:35:02.300Z,22.22
2017-09-10T08:36:02.277Z,22.18
2017-09-10T08:37:02.255Z,22.15
2017-09-10T08:38:02.234Z,22.22
2017-09-10T08:39:02.212Z,22.21
2017-09-10T08:40:02.189Z,22.18
2017-09-10T08:41:02.167Z,22.20
2017-09-10T08:42:02.147Z,22.25
2017-09-10T08:43:02.126Z,22.21
2017-09-10T08:44:02.102Z,22.22
2017-09-10T08:45:02.082Z,22.15
2017-09-10T08:46:02.061Z,22.24
2017-09-10T08:47:02.038Z,22.27
2017-09-10T08:48:02.014Z,22.20
2017-09-10T08:49:01.991Z,22.21
2017-09-10T08:50:01.971Z,22.22
2017-09-10T08:51:01.951Z,22.24
2017-09-10T08:52:01.927Z,22.15
2017-09-10T08:53:01.904Z,22.12
2017-09-10T08:54:01.882Z,22.18
2017-09-10T08:55:01.861Z,22.20
2017-09-10T08:56:01.841Z,22.25
2017-09-10T08:57:01.816Z,22.15
2017-09-10T08:58:01.794Z,22.15
2017-09-10T08:59:01.773Z,22.18
2017-09-10T09:00:01.751Z,22.20
2017-09-10T09:01:01.728Z,22.18
2017-09-10T09:02:01.706Z,22.25
2017-09-10T09:03:01.687Z,22.22
2017-09-10T09:04:01.664Z,22.22
2017-09-10T09:05:01.641Z,22.18
2017-09-10T09:06:01.620Z,22.21
2017-09-10T09:07:01.599Z,22.21
2017-09-10T09:08:01.575Z,22.21
2017-09-10T09:09:01.552Z,22.22
2017-09-10T09:10:01.531Z,22.24
2017-09-10T09:11:01.511Z,22.24
2017-09-10T09:12:01.490Z,22.24
2017-09-10T09:13:01.465Z,22.30
2017-09-10T09:14:01.445Z,22.27
2017-09-10T09:15:01.423Z,22.25
2017-09-10T09:16:01.400Z,22.25
2017-09-10T09:17:01.377Z,22.22
2017-09-10T09:18:01.355Z,22.30
2017-09-10T09:19:01.335Z,22.31
2017-09-10T09:20:01.313Z,22.25
2017-09-10T09:21:01.291Z,22.28
2017-09-10T09:22:01.268Z,22.22
2017-09-10T09:23:01.246Z,22.30
2017-09-10T09:24:01.224Z,22.31
2017-09-10T09:25:01.205Z,22.27
2017-09-10T09:26:01.180Z,22.28
2017-09-10T09:27:01.160Z,22.31
2017-09-10T09:28:01.137Z,22.28
2017-09-10T09:29:01.116Z,22.30
2017-09-10T09:30:01.093Z,22.31
2017-09-10T09:31:01.073Z,22.33
2017-09-10T09:32:01.049Z,22.30
2017-09-10T09:33:01.027Z,22.28
2017-09-10T09:34:01.004Z,22.31
2017-09-10T09:35:00.984Z,22.36
2017-09-10T09:36:00.961Z,22.33
2017-09-10T09:37:00.939Z,22.37
2017-09-10T09:38:00.918Z,22.31
2017-09-10T09:39:00.897Z,22.35
2017-09-10T09:40:00.874Z,22.31
2017-09-10T09:41:00.852Z,22.39
2017-09-10T09:42:00.834Z,22.37
2017-09-10T09:43:00.808Z,22.35
2017-09-10T09:44:00.787Z,22.37
2017-09-10T09:45:00.767Z,22.33
2017-09-10T09:46:00.742Z,22.30
2017-09-10T09:47:00.721Z,22.39
2017-09-10T09:48:00.700Z,22.37
2017-09-10T09:49:00.678Z,22.35
2017-09-10T09:50:00.654Z,22.37
2017-09-10T09:51:00.634Z,22.35
2017-09-10T09:52:00.612Z,22.31
2017-09-10T09:53:00.589Z,22.40
2017-09-10T09:54:00.567Z,22.35
2017-09-10T09:55:00.546Z,22.33
2017-09-10T09:56:00.723Z,22.37
2017-09-10T09:57:00.501Z,22.33
2017-09-10T09:58:00.480Z,22.49
2017-09-10T09:59:00.458Z,22.39
2017-09-10T10:00:00.437Z,22.43
2017-09-10T10:01:00.416Z,22.46
2017-09-10T10:02:00.393Z,22.47
2017-09-10T10:03:00.371Z,22.49
2017-09-10T10:04:00.350Z,22.37
2017-09-10T10:05:00.328Z,22.39
2017-09-10T10:06:00.305Z,22.31
2017-09-10T10:07:00.285Z,22.39
2017-09-10T10:08:00.264Z,22.37
2017-09-10T10:09:00.240Z,22.37
2017-09-10T10:10:00.221Z,22.39
2017-09-10T10:11:00.198Z,22.39
2017-09-10T10:12:00.177Z,22.37
2017-09-10T10:13:00.155Z,22.36
2017-09-10T10:14:00.132Z,22.39
2017-09-10T10:15:00.109Z,22.33
2017-09-10T10:16:00.089Z,22.42
2017-09-10T10:17:00.067Z,22.39
2017-09-10T10:18:00.047Z,22.42
2017-09-10T10:19:00.025Z,22.39
2017-09-10T10:20:00.003Z,22.36
2017-09-10T10:20:59.979Z,22.40
2017-09-10T10:21:59.959Z,22.33
2017-09-10T10:22:59.937Z,22.40
2017-09-10T10:23:59.916Z,22.40
2017-09-10T10:24:59.894Z,22.39
2017-09-10T10:25:59.872Z,22.39
2017-09-10T10:26:59.851Z,22.43
2017-09-10T10:27:59.830Z,22.40
2017-09-10T10:28:59.807Z,22.39
2017-09-10T10:29:59.785Z,22.35
2017-09-10T10:30:59.764Z,22.39
2017-09-10T10:31:59.745Z,22.39
2017-09-10T10:32:59.722Z,22.40
2017-09-10T10:33:59.699Z,22.36
2017-09-10T10:34:59.678Z,22.36
2017-09-10T10:35:59.656Z,22.36
2017-09-10T10:36:59.636Z,22.42
2017-09-10T10:37:59.613Z,22.39
2017-09-10T10:38:59.597Z,22.36
2017-09-10T10:39:59.569Z,22.37
2017-09-10T10:40:59.550Z,22.39
2017-09-10T10:41:59.526Z,22.36
2017-09-10T10:42:59.505Z,22.39
2017-09-10T10:43:59.484Z,22.37
2017-09-10T10:44:59.461Z,22.37
2017-09-10T10:45:59.438Z,22.33
2017-09-10T10:46:59.418Z,22.42
2017-09-10T10:47:59.619Z,22.35
2017-09-10T10:48:59.595Z,22.35
2017-09-10T10:49:59.355Z,22.37
2017-09-10T10:50:59.332Z,22.33
2017-09-10T10:51:59.311Z,22.33
2017-09-10T10:52:59.294Z,22.37
2017-09-10T10:53:59.267Z,22.33
2017-09-10T10:54:59.248Z,22.37
2017-09-10T10:55:59.224Z,22.35
2017-09-10T10:56:59.206Z,22.39
2017-09-10T10:57:59.182Z,22.36
2017-09-10T10:58:59.159Z,22.33
2017-09-10T10:59:59.142Z,22.39
2017-09-10T11:00:59.116Z,22.36
2017-09-10T11:01:59.097Z,22.36
2017-09-10T11:02:59.073Z,22.40
2017-09-10T11:03:59.052Z,22.46
2017-09-10T11:04:59.029Z,22.31
2017-09-10T11:05:59.010Z,22.36
2017-09-10T11:06:58.988Z,22.35
2017-09-10T11:07:58.967Z,22.37
2017-09-10T11:08:58.943Z,22.45
2017-09-10T11:09:58.922Z,22.35
2017-09-10T11:10:58.901Z,22.30
2017-09-10T11:11:58.881Z,22.42
2017-09-10T11:12:58.858Z,22.49
2017-09-10T11:13:58.837Z,22.52
2017-09-10T11:14:58.815Z,22.54
2017-09-10T11:15:58.794Z,22.49
2017-09-10T11:16:58.772Z,22.47
2017-09-10T11:17:58.750Z,22.54
2017-09-10T11:18:58.730Z,22.49
2017-09-10T11:19:58.710Z,22.46
2017-09-10T11:20:58.686Z,22.49
2017-09-10T11:21:58.663Z,22.54
2017-09-10T11:22:58.642Z,22.54
2017-09-10T11:23:58.626Z,22.51
2017-09-10T11:24:58.599Z,22.36
2017-09-10T11:25:58.579Z,22.49
2017-09-10T11:26:58.557Z,22.43
2017-09-10T11:27:58.535Z,22.39
2017-09-10T11:28:58.513Z,22.45
2017-09-10T11:29:58.497Z,22.55
2017-09-10T11:30:58.471Z,22.55
2017-09-10T11:31:58.449Z,22.54
2017-09-10T11:32:58.426Z,22.47
2017-09-10T11:33:58.410Z,22.46
2017-09-10T11:34:58.384Z,22.55
2017-09-10T11:35:58.364Z,22.54
2017-09-10T11:36:58.340Z,22.47
2017-09-10T11:37:58.319Z,22.46
2017-09-10T11:38:58.298Z,22.51
2017-09-10T11:39:58.276Z,22.54
2017-09-10T11:40:58.254Z,22.47
2017-09-10T11:41:58.233Z,22.52
2017-09-10T11:42:58.211Z,22.52
2017-09-10T11:43:58.190Z,22.49
2017-09-10T11:44:58.176Z,22.52
2017-09-10T11:45:58.147Z,22.46
2017-09-10T11:46:58.125Z,22.51
2017-09-10T11:47:58.106Z,22.55
2017-09-10T11:48:58.082Z,22.47
2017-09-10T11:49:58.061Z,22.55
2017-09-10T11:50:58.041Z,22.55
2017-09-10T11:51:58.018Z,22.49
2017-09-10T11:52:58.001Z,22.49
2017-09-10T11:53:57.975Z,22.49
2017-09-10T11:54:57.953Z,22.57
2017-09-10T11:55:57.933Z,22.47
2017-09-10T11:56:57.909Z,22.51
2017-09-10T11:57:57.890Z,22.49
2017-09-10T11:58:57.903Z,22.49
2017-09-10T11:59:57.844Z,22.47
2017-09-10T12:00:57.822Z,22.47
2017-09-10T12:01:57.802Z,22.52
2017-09-10T12:02:57.780Z,22.54
2017-09-10T12:03:57.759Z,22.40
2017-09-10T12:04:57.737Z,22.47
2017-09-10T12:05:57.715Z,22.43
2017-09-10T12:06:57.695Z,22.46
2017-09-10T12:07:57.672Z,22.47
2017-09-10T12:08:57.651Z,22.45
2017-09-10T12:09:57.661Z,22.36
2017-09-10T12:10:57.608Z,22.42
2017-09-10T12:11:57.586Z,22.36
2017-09-10T12:12:57.565Z,22.51
2017-09-10T12:13:57.547Z,22.46
2017-09-10T12:14:57.521Z,22.52
2017-09-10T12:15:57.500Z,22.47
2017-09-10T12:16:57.478Z,22.57
2017-09-10T12:17:57.456Z,22.49
2017-09-10T12:18:57.437Z,22.65
2017-09-10T12:19:57.413Z,22.61
2017-09-10T12:20:57.391Z,22.65
2017-09-10T12:21:57.370Z,22.62
2017-09-10T12:22:57.348Z,22.68
2017-09-10T12:23:57.327Z,22.65
2017-09-10T12:24:57.305Z,22.62
2017-09-10T12:25:57.284Z,22.64
2017-09-10T12:26:57.263Z,22.49
2017-09-10T12:27:57.242Z,22.51
2017-09-10T12:28:57.218Z,22.52
2017-09-10T12:29:57.196Z,22.55
2017-09-10T12:30:57.175Z,22.54
2017-09-10T12:31:57.154Z,22.46
2017-09-10T12:32:57.134Z,22.47
2017-09-10T12:33:57.111Z,22.54
2017-09-10T12:34:57.089Z,22.54
2017-09-10T12:35:57.068Z,22.49
2017-09-10T12:36:57.045Z,22.51
2017-09-10T12:37:57.025Z,22.54
2017-09-10T12:38:57.003Z,22.54
2017-09-10T12:39:56.982Z,22.54
2017-09-10T12:40:56.959Z,22.47
2017-09-10T12:41:56.939Z,22.52
2017-09-10T12:42:56.917Z,22.51
2017-09-10T12:43:56.895Z,22.46
2017-09-10T12:44:56.872Z,22.43
2017-09-10T12:45:56.853Z,22.43
2017-09-10T12:46:56.831Z,22.46
2017-09-10T12:47:56.809Z,22.52
2017-09-10T12:48:56.790Z,22.51
2017-09-10T12:49:56.765Z,22.45
2017-09-10T12:50:56.744Z,22.52
2017-09-10T12:51:56.725Z,22.51